createdAt,value
2023-06-19T00:01:36.230Z,25.34
2023-06-19T00:04:08.262Z,25.27
2023-06-19T00:06:40.440Z,25.31
2023-06-19T00:09:12.520Z,25.28
2023-06-19T00:11:44.492Z,25.29
2023-06-19T00:14:16.523Z,25.22
2023-06-19T00:16:48.510Z,25.23
2023-06-19T00:19:20.727Z,25.19
2023-06-19T00:21:52.670Z,25.16
2023-06-19T00:24:25.252Z,25.10
2023-06-19T00:26:57.205Z,25.10
2023-06-19T00:29:33.370Z,25.05
2023-06-19T00:32:06.051Z,24.97
2023-06-19T00:34:38.327Z,24.98
2023-06-19T00:37:14.262Z,24.95
2023-06-19T00:39:46.418Z,24.93
2023-06-19T00:42:18.497Z,24.90
2023-06-19T00:44:50.469Z,24.86
2023-06-19T00:47:23.117Z,24.85
2023-06-19T00:49:55.130Z,24.82
2023-06-19T00:52:27.128Z,24.79
2023-06-19T00:54:59.401Z,24.75
2023-06-19T00:57:32.530Z,24.70
2023-06-19T01:00:09.570Z,24.61
2023-06-19T01:02:42.114Z,24.53
2023-06-19T01:05:14.887Z,24.48
2023-06-19T01:08:18.942Z,24.46
2023-06-19T01:11:00.287Z,24.47
2023-06-19T01:13:47.053Z,24.43
2023-06-19T01:16:20.447Z,24.42
2023-06-19T01:18:52.924Z,24.35
2023-06-19T01:21:24.960Z,24.28
2023-06-19T01:23:57.275Z,24.21
2023-06-19T01:26:29.373Z,24.08
2023-06-19T01:29:01.654Z,23.94
2023-06-19T01:31:43.752Z,23.88
2023-06-19T01:34:18.825Z,23.86
2023-06-19T01:36:52.327Z,23.82
2023-06-19T01:39:25.676Z,23.79
2023-06-19T01:41:58.725Z,23.66
2023-06-19T01:44:30.841Z,23.64
2023-06-19T01:47:11.298Z,23.59
2023-06-19T01:49:43.268Z,23.54
2023-06-19T01:52:15.601Z,23.50
2023-06-19T01:54:47.614Z,23.38
2023-06-19T01:57:20.132Z,23.36
2023-06-19T01:59:52.085Z,23.36
2023-06-19T02:02:24.184Z,23.26
2023-06-19T02:04:56.209Z,23.22
2023-06-19T02:07:28.167Z,23.21
2023-06-19T02:10:00.220Z,23.19
2023-06-19T02:12:32.223Z,23.25
2023-06-19T02:15:05.225Z,23.25
2023-06-19T02:17:37.252Z,23.20
2023-06-19T02:20:12.483Z,23.13
2023-06-19T02:22:44.493Z,23.18
2023-06-19T02:25:16.569Z,23.19
2023-06-19T02:27:48.706Z,23.08
2023-06-19T02:30:20.867Z,23.06
2023-06-19T02:32:53.009Z,23.02
2023-06-19T02:35:25.046Z,22.96
2023-06-19T02:37:57.043Z,22.97
2023-06-19T02:40:29.016Z,22.94
2023-06-19T02:43:00.965Z,22.91
2023-06-19T02:45:32.981Z,22.92
2023-06-19T02:48:06.091Z,22.90
2023-06-19T02:50:38.152Z,22.97
2023-06-19T02:53:10.552Z,22.93
2023-06-19T02:55:42.542Z,22.95
2023-06-19T02:58:14.560Z,22.95
2023-06-19T03:00:47.726Z,22.93
2023-06-19T03:03:19.845Z,22.90
2023-06-19T03:05:52.013Z,22.87
2023-06-19T03:08:23.955Z,22.85
2023-06-19T03:10:55.916Z,22.65
2023-06-19T03:13:27.850Z,22.78
2023-06-19T03:15:59.801Z,22.81
2023-06-19T03:18:31.807Z,22.80
2023-06-19T03:21:03.902Z,22.75
2023-06-19T03:23:35.828Z,22.74
2023-06-19T03:26:08.905Z,22.99
2023-06-19T03:28:40.891Z,22.74
2023-06-19T03:31:12.921Z,22.64
2023-06-19T03:33:44.911Z,22.62
2023-06-19T03:36:16.966Z,22.58
2023-06-19T03:38:49.862Z,22.61
2023-06-19T03:41:21.903Z,22.58
2023-06-19T03:43:53.863Z,22.54
2023-06-19T03:46:26.184Z,22.55
2023-06-19T03:48:58.261Z,22.52
2023-06-19T03:51:30.315Z,22.54
2023-06-19T03:54:02.246Z,22.55
2023-06-19T03:56:34.192Z,22.55
2023-06-19T03:59:06.175Z,22.32
2023-06-19T04:01:38.191Z,22.58
2023-06-19T04:04:10.869Z,22.58
2023-06-19T04:06:42.884Z,22.51
2023-06-19T04:09:14.917Z,22.48
2023-06-19T04:11:46.973Z,22.47
2023-06-19T04:14:19.034Z,22.53
2023-06-19T04:16:51.008Z,22.52
2023-06-19T04:19:22.955Z,22.48
2023-06-19T04:21:55.783Z,22.50
2023-06-19T04:24:27.808Z,22.47
2023-06-19T04:26:59.858Z,22.42
2023-06-19T04:29:34.768Z,22.37
2023-06-19T04:32:12.282Z,22.39
2023-06-19T04:34:47.304Z,22.42
2023-06-19T04:37:20.361Z,22.42
2023-06-19T04:39:52.430Z,22.47
2023-06-19T04:42:24.455Z,22.50
2023-06-19T04:44:57.351Z,22.48
2023-06-19T04:47:39.794Z,22.49
2023-06-19T04:50:17.345Z,22.43
2023-06-19T04:52:51.943Z,22.43
2023-06-19T04:55:26.597Z,22.42
2023-06-19T04:57:58.722Z,22.43
2023-06-19T05:00:30.678Z,22.45
2023-06-19T05:03:03.211Z,22.46
2023-06-19T05:05:35.334Z,22.43
2023-06-19T05:08:07.314Z,22.43
2023-06-19T05:10:39.225Z,22.51
2023-06-19T05:13:11.259Z,22.54
2023-06-19T05:15:43.258Z,22.51
2023-06-19T05:18:15.707Z,22.48
2023-06-19T05:20:47.696Z,22.53
2023-06-19T05:23:19.723Z,22.49
2023-06-19T05:25:51.953Z,22.58
2023-06-19T05:28:23.871Z,22.58
2023-06-19T05:30:55.838Z,22.56
2023-06-19T05:33:28.076Z,22.54
2023-06-19T05:36:00.135Z,22.60
2023-06-19T05:38:32.087Z,22.58
2023-06-19T05:41:04.730Z,22.59
2023-06-19T05:43:36.660Z,22.60
2023-06-19T05:46:08.686Z,22.49
2023-06-19T05:48:40.668Z,22.53
2023-06-19T05:51:12.601Z,22.57
2023-06-19T05:53:44.997Z,22.61
2023-06-19T05:56:17.844Z,22.68
2023-06-19T05:58:49.838Z,22.69
2023-06-19T06:01:22.735Z,22.72
2023-06-19T06:03:57.574Z,22.74
2023-06-19T06:06:29.623Z,22.73
2023-06-19T06:09:01.560Z,22.75
2023-06-19T06:11:33.577Z,22.80
2023-06-19T06:14:05.762Z,22.81
2023-06-19T06:16:37.816Z,22.84
2023-06-19T06:19:09.868Z,22.85
2023-06-19T06:21:42.109Z,22.88
2023-06-19T06:24:14.032Z,23.02
2023-06-19T06:26:46.269Z,23.21
2023-06-19T06:29:18.194Z,23.36
2023-06-19T06:31:50.316Z,23.44
2023-06-19T06:34:22.285Z,23.54
2023-06-19T06:37:05.104Z,23.64
2023-06-19T06:39:39.756Z,23.84
2023-06-19T06:42:11.741Z,23.98
2023-06-19T06:44:43.973Z,23.90
2023-06-19T06:47:16.152Z,23.84
2023-06-19T06:49:48.134Z,23.82
2023-06-19T06:52:20.116Z,23.98
2023-06-19T06:54:52.064Z,24.07
2023-06-19T06:57:23.973Z,23.99
2023-06-19T06:59:55.955Z,23.99
2023-06-19T07:02:28.062Z,23.88
2023-06-19T07:05:00.233Z,23.92
2023-06-19T07:07:32.177Z,23.98
2023-06-19T07:10:04.836Z,24.00
2023-06-19T07:12:37.461Z,24.07
2023-06-19T07:15:09.899Z,24.09
2023-06-19T07:17:41.939Z,23.85
2023-06-19T07:20:14.873Z,24.02
2023-06-19T07:22:47.445Z,24.01
2023-06-19T07:25:19.646Z,24.18
2023-06-19T07:27:52.139Z,24.19
2023-06-19T07:30:25.683Z,24.17
2023-06-19T07:32:57.892Z,24.36
2023-06-19T07:35:29.907Z,24.52
2023-06-19T07:38:01.907Z,24.37
2023-06-19T07:40:33.991Z,24.50
2023-06-19T07:43:06.426Z,24.47
2023-06-19T07:45:38.453Z,24.49
2023-06-19T07:48:10.861Z,24.38
2023-06-19T07:50:43.298Z,24.36
2023-06-19T07:53:15.269Z,24.40
2023-06-19T07:55:47.413Z,24.60
2023-06-19T07:58:19.459Z,24.75
2023-06-19T08:00:51.445Z,24.79
2023-06-19T08:03:25.423Z,24.81
2023-06-19T08:05:58.001Z,24.71
2023-06-19T08:08:30.060Z,24.79
2023-06-19T08:11:02.670Z,24.87
2023-06-19T08:13:34.618Z,24.92
2023-06-19T08:16:07.955Z,25.03
2023-06-19T08:18:39.930Z,25.06
2023-06-19T08:21:12.384Z,24.99
2023-06-19T08:23:45.155Z,25.09
2023-06-19T08:26:17.221Z,25.02
2023-06-19T08:28:49.187Z,24.95
2023-06-19T08:31:22.810Z,25.05
2023-06-19T08:33:56.404Z,25.24
2023-06-19T08:36:28.321Z,25.33
2023-06-19T08:39:00.369Z,25.32
2023-06-19T08:41:32.436Z,25.26
2023-06-19T08:44:08.538Z,25.21
2023-06-19T08:46:42.403Z,25.06
2023-06-19T08:49:14.710Z,25.02
2023-06-19T08:51:46.743Z,25.05
2023-06-19T08:54:19.439Z,25.22
2023-06-19T08:56:51.425Z,25.45
2023-06-19T08:59:23.473Z,25.47
2023-06-19T09:01:56.635Z,25.34
2023-06-19T09:04:29.456Z,25.56
2023-06-19T09:07:05.384Z,25.76
2023-06-19T09:09:37.572Z,25.89
2023-06-19T09:12:13.849Z,26.12
2023-06-19T09:14:47.118Z,26.18
2023-06-19T09:17:22.159Z,26.20
2023-06-19T09:19:58.438Z,26.20
2023-06-19T09:22:32.943Z,26.20
2023-06-19T09:25:06.116Z,26.36
2023-06-19T09:27:38.173Z,26.49
2023-06-19T09:30:17.133Z,26.46
2023-06-19T09:32:49.579Z,26.40
2023-06-19T09:35:22.068Z,26.46
2023-06-19T09:37:55.277Z,26.53
2023-06-19T09:40:27.838Z,26.52
2023-06-19T09:43:02.536Z,26.65
2023-06-19T09:45:36.550Z,26.77
2023-06-19T09:48:15.993Z,26.86
2023-06-19T09:50:55.166Z,26.87
2023-06-19T09:53:27.568Z,26.85
2023-06-19T09:55:59.576Z,26.85
2023-06-19T09:58:33.525Z,26.94
2023-06-19T10:01:07.697Z,26.95
2023-06-19T10:03:41.941Z,27.06
2023-06-19T10:06:18.616Z,27.13
2023-06-19T10:08:52.592Z,27.17
2023-06-19T10:11:26.722Z,27.19
2023-06-19T10:14:08.715Z,27.27
2023-06-19T10:16:43.197Z,27.40
2023-06-19T10:19:17.972Z,27.54
2023-06-19T10:21:53.839Z,27.64
2023-06-19T10:24:27.925Z,27.65
2023-06-19T10:27:02.887Z,27.62
2023-06-19T10:29:46.843Z,27.50
2023-06-19T10:32:34.294Z,27.39
2023-06-19T10:35:16.234Z,27.49
2023-06-19T10:37:49.503Z,27.50
2023-06-19T10:40:21.907Z,27.52
2023-06-19T10:42:54.194Z,27.56
2023-06-19T10:45:29.633Z,27.55
2023-06-19T10:48:06.044Z,27.58
2023-06-19T10:50:43.343Z,27.44
2023-06-19T10:53:35.569Z,27.32
2023-06-19T10:56:07.586Z,27.29
2023-06-19T10:58:39.646Z,27.07
2023-06-19T11:01:12.159Z,27.01
2023-06-19T11:03:44.191Z,27.03
2023-06-19T11:06:22.070Z,27.21
2023-06-19T11:08:54.069Z,27.28
2023-06-19T11:11:41.483Z,27.29
2023-06-19T11:14:16.248Z,27.47
2023-06-19T11:16:49.487Z,27.53
2023-06-19T11:19:24.338Z,27.60
2023-06-19T11:21:58.542Z,27.61
2023-06-19T11:24:30.983Z,27.61
2023-06-19T11:27:04.003Z,27.77
2023-06-19T11:29:36.543Z,27.99
2023-06-19T11:32:16.348Z,28.13
2023-06-19T11:34:48.339Z,28.27
2023-06-19T11:37:22.095Z,28.25
2023-06-19T11:39:54.060Z,28.17
2023-06-19T11:42:26.572Z,28.12
2023-06-19T11:45:04.006Z,28.12
2023-06-19T11:47:36.954Z,28.11
2023-06-19T11:50:10.043Z,28.20
2023-06-19T11:52:44.053Z,28.28
2023-06-19T11:55:17.229Z,28.47
2023-06-19T11:57:49.242Z,28.52
2023-06-19T12:00:21.854Z,28.63
2023-06-19T12:02:54.998Z,28.66
2023-06-19T12:05:27.194Z,28.59
2023-06-19T12:07:59.384Z,28.74
2023-06-19T12:10:32.286Z,28.88
2023-06-19T12:13:04.374Z,29.01
2023-06-19T12:15:37.809Z,29.14
2023-06-19T12:18:12.013Z,29.34
2023-06-19T12:20:44.024Z,29.35
2023-06-19T12:23:16.036Z,29.26
2023-06-19T12:25:48.180Z,29.29
2023-06-19T12:28:20.251Z,29.45
2023-06-19T12:30:54.248Z,29.50
2023-06-19T12:33:26.377Z,29.45
2023-06-19T12:35:58.371Z,29.25
2023-06-19T12:38:30.338Z,29.10
2023-06-19T12:41:02.313Z,29.08
2023-06-19T12:43:34.646Z,29.13
2023-06-19T12:46:06.756Z,29.09
2023-06-19T12:48:39.093Z,29.37
2023-06-19T12:51:11.382Z,29.41
2023-06-19T12:53:43.412Z,29.36
2023-06-19T12:56:15.436Z,29.42
2023-06-19T12:58:47.377Z,29.55
2023-06-19T13:01:19.526Z,29.58
2023-06-19T13:03:51.930Z,29.53
2023-06-19T13:06:24.166Z,29.42
2023-06-19T13:08:56.118Z,29.40
2023-06-19T13:11:28.234Z,29.49
2023-06-19T13:14:00.432Z,29.67
2023-06-19T13:16:45.355Z,29.86
2023-06-19T13:19:17.897Z,29.75
2023-06-19T13:21:49.942Z,29.75
2023-06-19T13:24:22.149Z,29.83
2023-06-19T13:26:54.867Z,29.82
2023-06-19T13:29:26.876Z,29.92
2023-06-19T13:31:58.874Z,30.06
2023-06-19T13:34:30.844Z,30.03
2023-06-19T13:37:03.923Z,30.10
2023-06-19T13:39:35.939Z,30.17
2023-06-19T13:42:08.181Z,30.25
2023-06-19T13:44:40.176Z,30.36
2023-06-19T13:47:12.301Z,30.47
2023-06-19T13:49:44.326Z,30.52
2023-06-19T13:52:17.536Z,30.57
2023-06-19T13:54:49.877Z,30.55
2023-06-19T13:57:21.964Z,30.56
2023-06-19T13:59:53.897Z,30.45
2023-06-19T14:02:26.015Z,30.39
2023-06-19T14:04:58.174Z,30.36
2023-06-19T14:07:30.203Z,30.29
2023-06-19T14:10:05.141Z,30.35
2023-06-19T14:12:37.146Z,30.44
2023-06-19T14:15:09.985Z,30.53
2023-06-19T14:17:42.512Z,30.65
2023-06-19T14:20:14.569Z,30.83
2023-06-19T14:22:46.571Z,30.80
2023-06-19T14:25:18.580Z,30.67
2023-06-19T14:27:50.564Z,30.68
2023-06-19T14:30:22.987Z,30.83
2023-06-19T14:32:55.227Z,30.74
2023-06-19T14:35:27.478Z,30.95
2023-06-19T14:37:59.911Z,31.00
2023-06-19T14:40:31.838Z,30.87
2023-06-19T14:43:03.848Z,30.78
2023-06-19T14:45:35.998Z,30.65
2023-06-19T14:48:08.126Z,30.51
2023-06-19T14:50:40.303Z,30.63
2023-06-19T14:53:12.604Z,30.81
2023-06-19T14:55:46.932Z,31.00
2023-06-19T14:58:18.938Z,31.16
2023-06-19T15:00:51.305Z,31.19
2023-06-19T15:03:23.360Z,31.15
2023-06-19T15:05:55.554Z,31.25
2023-06-19T15:08:27.619Z,31.24
2023-06-19T15:10:59.617Z,31.34
2023-06-19T15:13:32.915Z,31.50
2023-06-19T15:16:06.827Z,31.55
2023-06-19T15:18:39.646Z,31.56
2023-06-19T15:21:11.811Z,31.46
2023-06-19T15:23:43.941Z,31.62
2023-06-19T15:26:16.441Z,31.50
2023-06-19T15:28:48.638Z,31.38
2023-06-19T15:31:24.750Z,31.19
2023-06-19T15:33:56.762Z,31.09
2023-06-19T15:36:28.827Z,31.20
2023-06-19T15:39:00.811Z,31.23
2023-06-19T15:41:32.785Z,31.30
2023-06-19T15:44:05.044Z,31.31
2023-06-19T15:46:37.076Z,31.46
2023-06-19T15:49:11.479Z,31.43
2023-06-19T15:51:43.634Z,31.34
2023-06-19T15:54:15.620Z,31.34
2023-06-19T15:56:47.627Z,31.37
2023-06-19T15:59:19.553Z,31.36
2023-06-19T16:01:51.575Z,31.27
2023-06-19T16:04:23.677Z,31.18
2023-06-19T16:06:55.741Z,31.21
2023-06-19T16:09:27.917Z,31.20
2023-06-19T16:11:59.951Z,31.10
2023-06-19T16:14:32.706Z,31.02
2023-06-19T16:17:07.709Z,30.86
2023-06-19T16:19:40.039Z,30.79
2023-06-19T16:22:12.437Z,30.70
2023-06-19T16:24:44.444Z,30.69
2023-06-19T16:27:16.595Z,30.61
2023-06-19T16:29:48.689Z,30.58
2023-06-19T16:32:20.826Z,30.50
2023-06-19T16:34:52.974Z,30.51
2023-06-19T16:37:25.028Z,30.60
2023-06-19T16:39:57.013Z,30.76
2023-06-19T16:42:28.976Z,30.85
2023-06-19T16:45:01.121Z,30.91
2023-06-19T16:47:33.086Z,31.02
2023-06-19T16:50:05.775Z,31.08
2023-06-19T16:52:37.833Z,31.06
2023-06-19T16:55:10.872Z,30.87
2023-06-19T16:57:42.874Z,30.69
2023-06-19T17:00:15.958Z,30.74
2023-06-19T17:02:49.529Z,30.73
2023-06-19T17:05:25.117Z,30.72
2023-06-19T17:07:57.111Z,30.64
2023-06-19T17:10:29.171Z,30.60
2023-06-19T17:13:01.231Z,30.59
2023-06-19T17:15:33.226Z,30.52
2023-06-19T17:18:05.673Z,30.47
2023-06-19T17:20:37.717Z,30.43
2023-06-19T17:23:09.752Z,30.46
2023-06-19T17:25:41.997Z,30.48
2023-06-19T17:28:14.831Z,30.36
2023-06-19T17:30:47.571Z,30.51
2023-06-19T17:33:19.676Z,30.54
2023-06-19T17:35:51.627Z,30.56
2023-06-19T17:38:23.733Z,30.57
2023-06-19T17:40:55.725Z,30.52
2023-06-19T17:43:27.777Z,30.47
2023-06-19T17:45:59.834Z,30.42
2023-06-19T17:48:31.806Z,30.39
2023-06-19T17:51:04.466Z,30.36
2023-06-19T17:53:36.477Z,30.26
2023-06-19T17:56:08.450Z,30.17
2023-06-19T17:58:40.537Z,30.10
2023-06-19T18:01:12.496Z,30.07
2023-06-19T18:03:44.616Z,30.01
2023-06-19T18:06:16.631Z,30.00
2023-06-19T18:08:49.151Z,29.95
2023-06-19T18:11:21.130Z,29.89
2023-06-19T18:13:53.174Z,29.83
2023-06-19T18:16:25.446Z,29.75
2023-06-19T18:18:57.410Z,29.68
2023-06-19T18:21:29.460Z,29.63
2023-06-19T18:24:03.384Z,29.53
2023-06-19T18:26:37.355Z,29.45
2023-06-19T18:29:09.634Z,29.39
2023-06-19T18:31:41.546Z,29.39
2023-06-19T18:34:13.549Z,29.33
2023-06-19T18:36:45.492Z,29.31
2023-06-19T18:39:17.540Z,29.31
2023-06-19T18:41:49.537Z,29.27
2023-06-19T18:44:21.720Z,29.26
2023-06-19T18:46:53.727Z,29.21
2023-06-19T18:49:25.755Z,29.16
2023-06-19T18:51:57.673Z,29.14
2023-06-19T18:54:29.689Z,29.10
2023-06-19T18:57:01.754Z,29.08
2023-06-19T18:59:33.739Z,29.06
2023-06-19T19:02:08.438Z,29.05
2023-06-19T19:04:42.842Z,28.96
2023-06-19T19:07:14.869Z,28.98
2023-06-19T19:09:46.812Z,28.96
2023-06-19T19:12:18.815Z,28.89
2023-06-19T19:14:50.913Z,28.93
2023-06-19T19:17:22.928Z,28.85
2023-06-19T19:19:54.907Z,28.85
2023-06-19T19:22:27.490Z,28.82
2023-06-19T19:24:59.655Z,28.79
2023-06-19T19:27:34.059Z,28.75
2023-06-19T19:30:07.989Z,28.72
2023-06-19T19:32:40.190Z,28.67
2023-06-19T19:35:12.609Z,28.58
2023-06-19T19:37:44.598Z,28.60
2023-06-19T19:40:16.632Z,28.56
2023-06-19T19:42:48.591Z,28.54
2023-06-19T19:45:20.589Z,28.47
2023-06-19T19:47:52.698Z,28.45
2023-06-19T19:50:25.029Z,28.40
2023-06-19T19:52:57.367Z,28.37
2023-06-19T19:55:29.330Z,28.33
2023-06-19T19:58:03.241Z,28.30
2023-06-19T20:00:35.362Z,28.27
2023-06-19T20:03:07.466Z,28.22
2023-06-19T20:05:39.735Z,28.18
2023-06-19T20:08:12.559Z,28.10
2023-06-19T20:10:46.492Z,28.35
2023-06-19T20:13:18.486Z,28.05
2023-06-19T20:15:50.496Z,28.04
2023-06-19T20:18:25.286Z,28.00
2023-06-19T20:20:59.608Z,27.98
2023-06-19T20:23:31.605Z,28.00
2023-06-19T20:26:03.558Z,27.94
2023-06-19T20:28:35.623Z,27.94
2023-06-19T20:31:08.236Z,27.94
2023-06-19T20:33:40.207Z,27.94
2023-06-19T20:36:12.157Z,27.92
2023-06-19T20:38:46.646Z,27.91
2023-06-19T20:41:18.718Z,27.90
2023-06-19T20:43:50.836Z,27.88
2023-06-19T20:46:23.049Z,27.86
2023-06-19T20:48:54.967Z,27.83
2023-06-19T20:51:26.968Z,27.84
2023-06-19T20:53:58.968Z,27.82
2023-06-19T20:56:30.926Z,27.80
2023-06-19T20:59:03.250Z,27.79
2023-06-19T21:01:35.493Z,27.78
2023-06-19T21:04:07.566Z,27.76
2023-06-19T21:06:39.603Z,27.67
2023-06-19T21:09:11.880Z,27.73
2023-06-19T21:11:45.777Z,27.70
2023-06-19T21:14:17.995Z,27.73
2023-06-19T21:16:50.424Z,27.69
2023-06-19T21:19:22.394Z,27.70
2023-06-19T21:21:54.334Z,27.69
2023-06-19T21:24:26.315Z,27.67
2023-06-19T21:26:58.379Z,27.60
2023-06-19T21:29:30.435Z,27.58
2023-06-19T21:32:02.441Z,27.54
2023-06-19T21:34:34.491Z,27.48
2023-06-19T21:37:06.945Z,27.52
2023-06-19T21:39:38.976Z,27.49
2023-06-19T21:42:11.427Z,27.46
2023-06-19T21:44:44.636Z,27.46
2023-06-19T21:47:16.603Z,27.43
2023-06-19T21:49:48.567Z,27.40
2023-06-19T21:52:20.535Z,27.38
2023-06-19T21:54:52.861Z,27.36
2023-06-19T21:57:24.854Z,27.31
2023-06-19T21:59:56.819Z,27.30
2023-06-19T22:02:28.853Z,27.26
2023-06-19T22:05:01.389Z,27.25
2023-06-19T22:07:33.382Z,27.24
2023-06-19T22:10:06.246Z,27.20
2023-06-19T22:12:38.293Z,27.17
2023-06-19T22:15:10.922Z,27.16
2023-06-19T22:17:46.093Z,27.12
2023-06-19T22:20:19.751Z,27.09
2023-06-19T22:22:51.884Z,27.06
2023-06-19T22:25:23.910Z,27.03
2023-06-19T22:27:56.927Z,26.99
2023-06-19T22:30:29.198Z,26.97
2023-06-19T22:33:06.690Z,26.89
2023-06-19T22:35:38.713Z,26.90
2023-06-19T22:38:10.968Z,26.86
2023-06-19T22:40:42.986Z,26.81
2023-06-19T22:43:14.960Z,26.80
2023-06-19T22:45:47.055Z,26.73
2023-06-19T22:48:19.587Z,26.68
2023-06-19T22:50:51.684Z,26.66
2023-06-19T22:53:23.630Z,26.64
2023-06-19T22:55:55.622Z,26.62
2023-06-19T22:58:27.593Z,26.61
2023-06-19T23:00:59.647Z,26.60
2023-06-19T23:03:31.911Z,26.60
2023-06-19T23:06:08.056Z,26.61
2023-06-19T23:08:41.208Z,26.60
2023-06-19T23:11:13.146Z,26.55
2023-06-19T23:13:45.181Z,26.51
2023-06-19T23:16:17.401Z,26.51
2023-06-19T23:18:49.331Z,26.49
2023-06-19T23:21:21.278Z,26.46
2023-06-19T23:23:53.276Z,26.44
2023-06-19T23:26:25.488Z,26.42
2023-06-19T23:28:57.422Z,26.38
2023-06-19T23:31:29.800Z,26.38
2023-06-19T23:34:01.963Z,26.24
2023-06-19T23:36:33.921Z,26.28
2023-06-19T23:39:05.968Z,26.27
2023-06-19T23:41:37.896Z,26.24
2023-06-19T23:44:10.057Z,26.21
2023-06-19T23:46:42.585Z,26.19
2023-06-19T23:49:14.717Z,26.16
2023-06-19T23:51:46.684Z,26.17
2023-06-19T23:54:18.702Z,26.17
2023-06-19T23:56:50.700Z,26.15
2023-06-19T23:59:22.662Z,26.13
